Time;durP1;ratioP1;P1;durP2;ratioP2;P2;SDS_P1;SDS_P2;PMS_P1;PMS_P2;Temp;Humidity;BMP_temperature;BMP_pressure;BME280_temperature;BME280_humidity;BME280_pressure;Samples;Min_cycle;Max_cycle;Signal;HPM_P1;HPM_P2
2021/07/09 00:01:26;;;;;;;3.17;2.58;;;;;;;18.19;81.62;100782.91;5055429;28;20040;-61
2021/07/09 00:03:53;;;;;;;4.38;2.75;;;;;;;18.15;82.52;100781.41;5054860;28;20058;-60
2021/07/09 00:06:21;;;;;;;5.88;2.95;;;;;;;18.07;82.91;100781.97;5050786;28;20049;-60
2021/07/09 00:08:48;;;;;;;5.18;3.22;;;;;;;18.06;83.50;100776.72;5045949;28;20058;-61
2021/07/09 00:11:16;;;;;;;4.85;3.17;;;;;;;18.03;83.79;100775.13;5052301;28;20044;-60
2021/07/09 00:13:43;;;;;;;5.00;2.85;;;;;;;17.96;83.96;100772.97;5056414;28;20055;-59
2021/07/09 00:16:11;;;;;;;4.45;3.13;;;;;;;17.90;84.96;100776.13;5046939;28;20048;-58
2021/07/09 00:18:38;;;;;;;5.80;3.22;;;;;;;17.85;85.26;100769.25;5042994;28;20037;-60
2021/07/09 00:21:05;;;;;;;6.60;3.30;;;;;;;17.82;86.07;100764.09;5046215;28;20064;-59
2021/07/09 00:23:32;;;;;;;7.30;3.47;;;;;;;17.81;86.49;100770.44;5038978;28;20072;-59
2021/07/09 00:25:58;;;;;;;8.82;3.63;;;;;;;17.73;87.08;100778.16;5040499;28;20041;-61
2021/07/09 00:28:25;;;;;;;4.45;3.50;;;;;;;17.67;87.53;100781.25;5039634;28;20045;-60
2021/07/09 00:30:51;;;;;;;5.90;3.47;;;;;;;17.61;88.66;100775.47;5043069;28;20050;-59
2021/07/09 00:33:18;;;;;;;7.68;4.10;;;;;;;17.57;89.51;100776.63;5043508;28;20056;-60
2021/07/09 00:35:44;;;;;;;5.45;3.95;;;;;;;17.53;90.08;100781.34;5041361;28;20061;-60
2021/07/09 00:38:12;;;;;;;6.45;3.88;;;;;;;17.47;89.92;100773.75;5036959;28;20052;-60
2021/07/09 00:40:38;;;;;;;6.45;3.53;;;;;;;17.45;90.27;100767.66;5041627;28;20068;-60
2021/07/09 00:43:05;;;;;;;4.78;3.97;;;;;;;17.42;90.57;100767.84;5048974;28;20048;-58
2021/07/09 00:45:32;;;;;;;4.72;3.67;;;;;;;17.40;91.04;100765.28;5045375;28;20053;-59
2021/07/09 00:47:58;;;;;;;5.75;3.72;;;;;;;17.38;91.30;100767.19;5040095;28;20037;-61
2021/07/09 00:50:25;;;;;;;3.58;3.28;;;;;;;17.37;91.23;100765.50;5043979;28;20052;-59
2021/07/09 00:52:51;;;;;;;5.20;3.40;;;;;;;17.32;90.96;100756.91;5037156;28;20048;-61
2021/07/09 00:55:19;;;;;;;5.40;3.47;;;;;;;17.29;91.13;100757.16;5040214;28;20903;-60
2021/07/09 00:57:52;;;;;;;4.85;3.65;;;;;;;17.25;91.49;100747.59;5035166;28;20987;-59
2021/07/09 01:00:20;;;;;;;4.28;3.88;;;;;;;17.26;91.94;100753.81;5039803;28;20059;-59
2021/07/09 01:02:48;;;;;;;4.50;3.72;;;;;;;17.26;92.61;100754.69;5042480;28;20053;-61
2021/07/09 01:05:17;;;;;;;5.80;3.97;;;;;;;17.26;91.99;100754.69;5035798;28;20049;-60
2021/07/09 01:07:44;;;;;;;5.60;4.00;;;;;;;17.29;92.41;100753.63;5039382;28;20052;-61
2021/07/09 01:10:16;;;;;;;5.22;3.45;;;;;;;17.31;92.28;100749.00;5043033;28;20502;-60
2021/07/09 01:12:44;;;;;;;7.28;3.70;;;;;;;17.33;92.58;100750.59;5039318;28;20064;-61
2021/07/09 01:15:14;;;;;;;5.13;4.20;;;;;;;17.31;92.25;100743.66;5043592;28;20048;-60
2021/07/09 01:17:41;;;;;;;4.47;3.83;;;;;;;17.26;91.85;100746.66;5038275;28;20482;-59
2021/07/09 01:20:11;;;;;;;4.68;4.25;;;;;;;17.24;91.38;100742.34;5044692;28;20498;-60
2021/07/09 01:22:42;;;;;;;6.05;4.20;;;;;;;17.22;90.91;100742.47;5038598;28;20059;-61
2021/07/09 01:25:13;;;;;;;4.18;3.78;;;;;;;17.20;90.99;100736.34;5042580;28;20044;-59
2021/07/09 01:27:42;;;;;;;4.90;3.88;;;;;;;17.19;90.65;100742.66;5061690;28;21246;-61
2021/07/09 01:30:13;;;;;;;5.18;3.53;;;;;;;17.18;90.64;100733.78;5055155;28;20053;-61
2021/07/09 01:32:41;;;;;;;7.95;4.07;;;;;;;17.22;90.91;100738.94;5050725;28;20052;-60
2021/07/09 01:35:08;;;;;;;6.15;3.80;;;;;;;17.19;90.42;100738.16;5037597;28;20056;-60
2021/07/09 01:37:35;;;;;;;5.30;4.80;;;;;;;17.21;90.88;100747.91;5044145;28;20053;-61
2021/07/09 01:40:09;;;;;;;7.75;4.22;;;;;;;17.17;90.72;100742.75;5053371;28;20071;-59
2021/07/09 01:42:37;;;;;;;4.28;3.80;;;;;;;17.15;91.30;100735.84;5053752;28;20044;-60
2021/07/09 01:45:04;;;;;;;4.95;4.18;;;;;;;17.11;91.87;100732.50;5057005;28;20049;-61
2021/07/09 01:47:31;;;;;;;4.78;4.20;;;;;;;17.11;92.10;100735.19;5052273;28;20049;-60
2021/07/09 01:50:01;;;;;;;8.85;4.50;;;;;;;17.09;92.67;100734.44;5051770;28;20437;-60
2021/07/09 01:52:28;;;;;;;6.35;4.13;;;;;;;17.09;92.92;100737.09;5048256;28;20045;-60
2021/07/09 01:54:56;;;;;;;5.40;4.15;;;;;;;17.09;93.01;100728.22;5048822;28;20068;-60
2021/07/09 01:57:22;;;;;;;6.25;4.63;;;;;;;17.09;93.32;100730.88;5041737;28;20044;-61
2021/07/09 01:59:49;;;;;;;5.43;4.22;;;;;;;17.10;93.30;100725.44;5050423;28;20505;-59
2021/07/09 02:02:15;;;;;;;6.82;4.32;;;;;;;17.12;93.35;100720.84;5046104;28;20052;-60
2021/07/09 02:04:51;;;;;;;5.20;4.20;;;;;;;17.13;93.05;100721.69;5049853;28;20055;-60
2021/07/09 02:07:18;;;;;;;4.82;4.38;;;;;;;17.17;93.15;100723.16;5045960;28;20048;-60
2021/07/09 02:09:47;;;;;;;5.38;4.35;;;;;;;17.19;93.20;100715.91;5056044;28;20059;-60
2021/07/09 02:12:15;;;;;;;4.53;4.13;;;;;;;17.22;93.23;100709.47;5045990;28;20057;-60
2021/07/09 02:14:42;;;;;;;4.40;4.00;;;;;;;17.22;92.87;100715.69;5050128;28;20071;-61
2021/07/09 02:17:12;;;;;;;6.47;4.32;;;;;;;17.25;93.08;100711.94;5040489;28;20056;-60
2021/07/09 02:19:39;;;;;;;6.03;4.10;;;;;;;17.24;93.51;100704.88;5044947;28;20063;-60
2021/07/09 02:22:09;;;;;;;4.32;3.92;;;;;;;17.29;94.18;100714.31;5058479;28;20548;-60
2021/07/09 02:24:37;;;;;;;6.40;4.45;;;;;;;17.33;94.11;100704.22;5048866;28;20079;-61
2021/07/09 02:27:05;;;;;;;5.10;4.57;;;;;;;17.33;93.93;100710.44;5054958;28;20393;-61
2021/07/09 02:29:33;;;;;;;5.93;5.13;;;;;;;17.29;93.35;100703.63;5046430;28;20045;-61
2021/07/09 02:32:00;;;;;;;5.22;4.72;;;;;;;17.29;93.93;100703.63;5043809;28;20083;-60
2021/07/09 02:34:28;;;;;;;5.10;4.70;;;;;;;17.32;94.51;100711.41;5041933;28;20056;-61
2021/07/09 02:36:55;;;;;;;7.18;5.40;;;;;;;17.34;94.98;100706.81;5037352;28;20041;-60
2021/07/09 02:39:24;;;;;;;5.30;4.70;;;;;;;17.35;95.02;100716.56;5037010;28;20049;-61
2021/07/09 02:41:55;;;;;;;5.40;4.90;;;;;;;17.34;94.79;100703.28;5044760;28;20099;-61
2021/07/09 02:44:23;;;;;;;4.72;4.32;;;;;;;17.37;95.38;100716.44;5048973;28;20045;-60
2021/07/09 02:46:50;;;;;;;6.63;5.10;;;;;;;17.39;95.74;100714.53;5049121;28;20053;-60
2021/07/09 02:49:16;;;;;;;6.80;5.80;;;;;;;17.37;94.81;100711.09;5038903;28;20044;-58
2021/07/09 02:51:44;;;;;;;7.38;6.32;;;;;;;17.36;94.42;100704.88;5041481;28;21649;-60
2021/07/09 02:54:10;;;;;;;6.10;5.55;;;;;;;17.37;93.65;100705.75;5047356;28;20052;-59
2021/07/09 02:56:37;;;;;;;6.82;6.13;;;;;;;17.37;93.82;100703.06;5060625;28;20049;-61
2021/07/09 02:59:03;;;;;;;9.38;6.60;;;;;;;17.38;93.90;100696.75;5066533;28;20053;-61
2021/07/09 03:01:30;;;;;;;9.10;6.80;;;;;;;17.38;93.59;100704.78;5053474;28;20124;-62
2021/07/09 03:03:56;;;;;;;6.65;5.97;;;;;;;17.35;93.60;100703.16;5037715;28;20061;-63
2021/07/09 03:06:23;;;;;;;9.43;6.85;;;;;;;17.32;93.53;100694.47;5042342;28;20059;-62
2021/07/09 03:08:50;;;;;;;6.15;5.55;;;;;;;17.32;93.74;100699.84;5044982;28;20504;-62
2021/07/09 03:11:17;;;;;;;7.20;5.90;;;;;;;17.31;93.68;100700.84;5035722;28;20053;-61
2021/07/09 03:13:44;;;;;;;6.35;5.55;;;;;;;17.28;93.24;100698.38;5039064;28;20052;-61
2021/07/09 03:16:10;;;;;;;7.55;5.82;;;;;;;17.25;93.05;100694.06;5040259;28;20061;-59
2021/07/09 03:18:37;;;;;;;8.13;5.38;;;;;;;17.24;93.29;100695.03;5046738;28;20128;-60
2021/07/09 03:21:03;;;;;;;7.15;5.80;;;;;;;17.27;93.63;100693.97;5042774;28;20053;-59
2021/07/09 03:23:30;;;;;;;6.65;5.45;;;;;;;17.26;93.50;100690.44;5046202;28;20512;-61
2021/07/09 03:26:00;;;;;;;6.28;5.20;;;;;;;17.27;93.06;100680.59;5043964;28;20416;-61
2021/07/09 03:28:27;;;;;;;7.93;5.50;;;;;;;17.27;92.94;100684.13;5042046;28;20512;-60
2021/07/09 03:30:54;;;;;;;8.13;5.60;;;;;;;17.26;92.57;100682.41;5052290;28;20049;-62
2021/07/09 03:33:20;;;;;;;6.32;4.90;;;;;;;17.24;92.37;100687.00;5040843;28;23618;-61
2021/07/09 03:35:47;;;;;;;7.43;5.82;;;;;;;17.25;92.54;100685.19;5043000;28;20064;-61
2021/07/09 03:38:14;;;;;;;7.28;5.22;;;;;;;17.25;92.25;100693.22;5039975;28;20049;-62
2021/07/09 03:40:41;;;;;;;5.82;5.20;;;;;;;17.24;92.14;100696.84;5041764;28;20049;-61
2021/07/09 03:43:07;;;;;;;11.73;5.85;;;;;;;17.23;92.74;100692.47;5042367;28;20430;-61
2021/07/09 03:45:34;;;;;;;6.00;5.40;;;;;;;17.23;93.24;100705.84;5040815;28;20102;-60
2021/07/09 03:48:00;;;;;;;6.60;5.22;;;;;;;17.23;93.40;100703.16;5043900;28;20060;-61
2021/07/09 03:50:27;;;;;;;11.18;6.10;;;;;;;17.24;94.08;100696.84;5036726;28;20048;-60
2021/07/09 03:52:53;;;;;;;9.10;5.63;;;;;;;17.23;93.99;100695.13;5041919;28;20067;-60
2021/07/09 03:55:20;;;;;;;6.30;5.70;;;;;;;17.24;93.41;100692.34;5018156;28;20509;-62
2021/07/09 03:57:46;;;;;;;7.40;5.47;;;;;;;17.23;92.92;100687.13;5019430;28;20508;-63
2021/07/09 04:00:14;;;;;;;8.30;5.22;;;;;;;17.21;92.76;100689.91;5022755;28;20046;-59
2021/07/09 04:02:40;;;;;;;6.28;5.68;;;;;;;17.20;93.00;100698.88;5025431;28;20091;-60
2021/07/09 04:05:08;;;;;;;7.95;5.15;;;;;;;17.21;93.09;100694.38;5018344;28;20113;-60
2021/07/09 04:07:35;;;;;;;9.02;6.20;;;;;;;17.22;93.39;100701.47;5017850;28;20052;-61
2021/07/09 04:10:03;;;;;;;8.35;5.70;;;;;;;17.19;92.85;100702.53;5022078;28;20065;-60
2021/07/09 04:12:30;;;;;;;7.05;5.28;;;;;;;17.19;93.10;100708.72;5020574;28;20056;-60
2021/07/09 04:14:57;;;;;;;6.05;5.43;;;;;;;17.17;92.92;100713.31;5019235;28;20049;-60
2021/07/09 04:17:23;;;;;;;6.03;5.43;;;;;;;17.19;93.60;100713.22;5026232;28;20059;-59
2021/07/09 04:19:51;;;;;;;7.90;5.30;;;;;;;17.23;93.19;100721.91;5018551;28;20050;-60
2021/07/09 04:22:18;;;;;;;6.53;5.57;;;;;;;17.25;92.73;100717.31;5018175;28;20424;-58
2021/07/09 04:24:45;;;;;;;5.72;5.15;;;;;;;17.26;92.58;100719.03;5015819;28;20053;-60
2021/07/09 04:27:12;;;;;;;8.50;6.05;;;;;;;17.27;92.52;100720.75;5021028;28;20064;-61
2021/07/09 04:29:39;;;;;;;6.93;5.57;;;;;;;17.28;92.77;100719.78;5024374;28;20497;-62
2021/07/09 04:32:05;;;;;;;5.97;5.28;;;;;;;17.29;92.87;100714.31;5018712;28;20046;-61
2021/07/09 04:34:32;;;;;;;6.75;5.30;;;;;;;17.30;93.04;100716.03;5020702;28;20054;-60
2021/07/09 04:36:59;;;;;;;5.97;5.40;;;;;;;17.31;93.15;100722.25;5029080;28;20065;-61
2021/07/09 04:39:25;;;;;;;8.45;5.85;;;;;;;17.32;93.32;100726.59;5018098;28;20476;-62
2021/07/09 04:41:52;;;;;;;6.43;5.72;;;;;;;17.32;93.10;100721.25;5017200;28;20060;-62
2021/07/09 04:44:18;;;;;;;6.50;4.97;;;;;;;17.32;93.42;100727.47;5017151;28;20058;-59
2021/07/09 04:46:45;;;;;;;6.63;5.85;;;;;;;17.36;93.99;100730.78;5022541;28;20045;-62
2021/07/09 04:49:11;;;;;;;7.90;6.28;;;;;;;17.35;93.34;100734.44;5015269;28;20133;-61
2021/07/09 04:51:38;;;;;;;6.72;5.57;;;;;;;17.35;93.47;100729.06;5021510;28;20054;-61
2021/07/09 04:54:04;;;;;;;6.78;6.07;;;;;;;17.37;93.23;100733.38;5026317;28;20057;-60
2021/07/09 04:56:31;;;;;;;8.10;5.90;;;;;;;17.38;93.20;100737.75;5042004;28;20075;-61
2021/07/09 04:58:57;;;;;;;7.60;6.80;;;;;;;17.38;93.13;100736.91;5037515;28;20065;-61
2021/07/09 05:01:24;;;;;;;8.00;7.20;;;;;;;17.40;92.87;100738.50;5045763;28;20096;-61
2021/07/09 05:03:51;;;;;;;7.85;6.93;;;;;;;17.45;93.52;100740.88;5044712;28;20056;-60
2021/07/09 05:06:17;;;;;;;20.05;13.50;;;;;;;17.50;92.97;100747.59;5038992;28;20083;-60
2021/07/09 05:08:44;;;;;;;8.45;7.55;;;;;;;17.49;92.50;100747.72;5040986;28;20409;-60
2021/07/09 05:11:10;;;;;;;9.60;7.43;;;;;;;17.47;92.37;100749.66;5037560;28;20053;-58
2021/07/09 05:13:39;;;;;;;8.13;7.35;;;;;;;17.46;92.75;100747.94;5027810;28;20559;-60
2021/07/09 05:16:06;;;;;;;7.72;6.93;;;;;;;17.47;92.83;100749.66;5039337;28;20060;-60
2021/07/09 05:18:33;;;;;;;8.40;7.50;;;;;;;17.50;93.87;100749.41;5039289;28;20119;-60
2021/07/09 05:21:01;;;;;;;8.23;7.25;;;;;;;17.53;93.10;100752.75;5024545;28;20053;-60
2021/07/09 05:23:27;;;;;;;9.23;7.85;;;;;;;17.57;93.10;100749.84;5039062;28;20049;-62
2021/07/09 05:25:54;;;;;;;8.88;7.97;;;;;;;17.57;92.18;100753.41;5038011;28;20045;-62
2021/07/09 05:28:21;;;;;;;8.65;7.78;;;;;;;17.56;92.34;100753.50;5047589;28;20045;-61
2021/07/09 05:30:47;;;;;;;8.75;7.88;;;;;;;17.53;92.13;100757.25;5036455;28;20049;-60
2021/07/09 05:33:15;;;;;;;12.07;9.98;;;;;;;17.48;92.34;100757.56;5033788;28;20068;-61
2021/07/09 05:35:44;;;;;;;10.23;8.32;;;;;;;17.46;92.97;100770.22;5035553;28;20523;-60
2021/07/09 05:38:10;;;;;;;11.43;7.88;;;;;;;17.45;93.22;100763.16;5040573;28;20048;-60
2021/07/09 05:40:37;;;;;;;10.07;8.95;;;;;;;17.44;93.41;100763.25;5039348;28;20415;-60
2021/07/09 05:43:04;;;;;;;9.30;8.13;;;;;;;17.46;93.55;100769.38;5038378;28;20041;-60
2021/07/09 05:45:30;;;;;;;10.45;9.35;;;;;;;17.44;93.28;100771.28;5041091;28;20055;-61
2021/07/09 05:47:57;;;;;;;11.63;8.63;;;;;;;17.42;93.35;100773.22;5037745;28;20045;-62
2021/07/09 05:50:26;;;;;;;12.48;10.13;;;;;;;17.37;93.82;100775.34;5034837;28;20406;-61
2021/07/09 05:52:55;;;;;;;12.18;9.85;;;;;;;17.36;94.17;100773.63;5037531;28;20057;-60
2021/07/09 05:55:21;;;;;;;10.77;9.73;;;;;;;17.38;94.25;100775.22;5034606;28;20432;-60
2021/07/09 05:57:48;;;;;;;12.00;10.35;;;;;;;17.37;93.94;100778.88;5033494;28;20053;-61
2021/07/09 06:00:15;;;;;;;13.25;10.70;;;;;;;17.39;94.49;100784.13;5037619;28;20397;-61
2021/07/09 06:02:41;;;;;;;12.38;10.38;;;;;;;17.42;94.92;100783.91;5037916;28;20052;-61
2021/07/09 06:05:09;;;;;;;15.07;10.90;;;;;;;17.42;94.68;100782.09;5040494;28;20056;-61
2021/07/09 06:07:36;;;;;;;12.45;10.98;;;;;;;17.45;94.70;100781.03;5039387;28;20045;-61
2021/07/09 06:10:05;;;;;;;12.40;11.18;;;;;;;17.46;94.33;100780.06;5039768;28;20045;-61
2021/07/09 06:12:32;;;;;;;16.05;11.07;;;;;;;17.53;94.23;100784.88;5032447;28;20238;-60
2021/07/09 06:14:59;;;;;;;11.73;10.52;;;;;;;17.59;93.24;100778.25;5043487;28;20528;-61
2021/07/09 06:17:27;;;;;;;11.80;10.43;;;;;;;17.71;92.40;100779.22;5048897;28;20049;-60
2021/07/09 06:19:54;;;;;;;11.82;10.30;;;;;;;17.86;91.91;100779.00;5049914;28;20073;-58
2021/07/09 06:22:21;;;;;;;12.88;10.13;;;;;;;18.04;90.54;100773.28;5037017;28;20059;-58
2021/07/09 06:24:47;;;;;;;12.10;10.27;;;;;;;18.16;89.16;100777.75;5035326;28;20555;-60
2021/07/09 06:27:14;;;;;;;11.07;9.68;;;;;;;18.28;89.44;100784.06;5039536;28;20064;-62
2021/07/09 06:29:41;;;;;;;14.15;11.88;;;;;;;18.36;88.41;100779.84;5040048;28;20135;-60
2021/07/09 06:32:08;;;;;;;12.10;9.57;;;;;;;18.39;87.75;100782.31;5043778;28;20052;-61
2021/07/09 06:34:34;;;;;;;12.15;10.25;;;;;;;18.42;87.91;100787.44;5047387;28;20052;-61
2021/07/09 06:37:01;;;;;;;9.95;8.90;;;;;;;18.50;88.14;100781.53;5043350;28;20982;-60
2021/07/09 06:39:27;;;;;;;11.57;10.02;;;;;;;18.61;87.55;100789.66;5043649;28;20056;-58
2021/07/09 06:41:54;;;;;;;13.52;9.75;;;;;;;18.69;86.73;100789.09;5040571;28;20057;-61
2021/07/09 06:44:20;;;;;;;10.05;8.93;;;;;;;18.78;86.13;100780.34;5036326;28;20041;-59
2021/07/09 06:46:47;;;;;;;11.82;9.73;;;;;;;18.86;85.04;100778.81;5042678;28;20147;-62
2021/07/09 06:49:15;;;;;;;11.80;9.10;;;;;;;18.92;85.21;100772.13;5044843;28;20056;-63
2021/07/09 06:51:41;;;;;;;11.48;9.77;;;;;;;19.01;84.22;100786.69;5056081;28;20045;-61
2021/07/09 06:54:08;;;;;;;11.15;9.00;;;;;;;19.05;83.76;100791.69;5052945;28;20059;-61
2021/07/09 06:56:34;;;;;;;15.02;10.73;;;;;;;19.11;84.71;100793.91;5036535;28;20060;-61
2021/07/09 06:59:01;;;;;;;13.38;9.70;;;;;;;19.22;84.73;100785.03;5036258;28;20432;-61
2021/07/09 07:01:27;;;;;;;9.95;8.85;;;;;;;19.37;83.75;100793.72;5035200;28;20049;-61
2021/07/09 07:03:54;;;;;;;13.05;9.95;;;;;;;19.51;83.29;100788.22;5038165;28;20045;-61
2021/07/09 07:06:20;;;;;;;13.40;9.52;;;;;;;19.64;83.72;100790.78;5026708;28;20057;-62
2021/07/09 07:08:47;;;;;;;16.60;9.48;;;;;;;19.75;83.15;100791.63;5034874;28;20071;-60
2021/07/09 07:11:13;;;;;;;10.45;9.35;;;;;;;19.84;82.00;100795.41;5030142;28;20052;-62
2021/07/09 07:13:40;;;;;;;10.55;9.15;;;;;;;19.80;80.78;100797.50;5041048;28;20052;-61
2021/07/09 07:16:08;;;;;;;10.45;8.68;;;;;;;19.72;81.29;100797.25;5044718;28;20045;-60
2021/07/09 07:18:35;;;;;;;10.93;9.45;;;;;;;19.71;81.24;100803.59;5039239;28;20496;-60
2021/07/09 07:21:01;;;;;;;11.65;8.82;;;;;;;19.71;80.35;100802.75;5048334;28;20055;-61
2021/07/09 07:23:28;;;;;;;11.05;9.95;;;;;;;19.65;80.00;100809.47;5050643;28;20068;-60
2021/07/09 07:25:56;;;;;;;10.45;8.68;;;;;;;19.53;80.51;100797.81;5044457;28;20067;-59
2021/07/09 07:28:23;;;;;;;10.68;9.48;;;;;;;19.46;80.63;100801.09;5037137;28;20425;-60
2021/07/09 07:31:06;;;;;;;9.75;8.77;;;;;;;19.43;81.50;100804.00;5044471;28;20065;-60
2021/07/09 07:33:33;;;;;;;9.63;8.63;;;;;;;19.43;81.33;100812.91;5046024;28;20428;-62
2021/07/09 07:36:16;;;;;;;11.45;10.18;;;;;;;19.46;80.57;100801.94;5050943;28;20040;-60
2021/07/09 07:38:45;;;;;;;13.27;9.82;;;;;;;19.52;81.30;100800.63;5055720;28;20083;-61
2021/07/09 07:41:13;;;;;;;10.02;8.88;;;;;;;19.59;80.73;100801.88;5057142;28;20048;-60
2021/07/09 07:43:42;;;;;;;14.73;11.75;;;;;;;19.67;81.52;100804.84;5062768;28;20053;-59
2021/07/09 07:46:09;;;;;;;11.38;10.20;;;;;;;19.69;80.29;100802.84;5047982;28;20045;-60
2021/07/09 07:48:36;;;;;;;14.50;10.75;;;;;;;19.62;80.43;100801.66;5039920;28;20590;-60
2021/07/09 07:51:03;;;;;;;12.27;9.95;;;;;;;19.55;80.33;100805.78;5042884;28;20049;-60
2021/07/09 07:53:34;;;;;;;14.38;10.90;;;;;;;19.48;80.85;100804.53;5052297;28;20049;-59
2021/07/09 07:56:01;;;;;;;13.73;11.38;;;;;;;19.34;81.01;100807.41;5054799;28;20618;-58
2021/07/09 07:58:28;;;;;;;14.43;11.35;;;;;;;19.19;81.88;100807.63;5047923;28;20139;-57
2021/07/09 08:00:54;;;;;;;12.68;10.13;;;;;;;19.06;82.65;100812.19;5041659;28;20492;-60
2021/07/09 08:03:21;;;;;;;14.00;12.00;;;;;;;18.97;81.99;100812.88;5044937;28;20088;-60
2021/07/09 08:05:48;;;;;;;12.40;11.10;;;;;;;18.81;82.67;100801.59;5036628;28;20056;-60
2021/07/09 08:08:14;;;;;;;15.88;11.50;;;;;;;18.78;83.10;100809.88;5048262;28;20602;-58
2021/07/09 08:10:41;;;;;;;13.73;12.30;;;;;;;18.76;84.28;100811.81;5048923;28;20045;-60
2021/07/09 08:13:07;;;;;;;14.35;11.70;;;;;;;18.76;84.16;100809.97;5052127;28;20105;-60
2021/07/09 08:15:34;;;;;;;13.32;11.93;;;;;;;18.76;84.15;100809.97;5054887;28;20060;-60
2021/07/09 08:18:01;;;;;;;15.05;13.00;;;;;;;18.78;83.98;100805.34;5053188;28;20488;-61
2021/07/09 08:20:28;;;;;;;17.02;13.63;;;;;;;18.78;84.29;100809.88;5055171;28;20052;-61
2021/07/09 08:22:55;;;;;;;19.42;15.13;;;;;;;18.76;84.16;100804.59;5055890;28;20045;-61
2021/07/09 08:25:22;;;;;;;16.92;13.88;;;;;;;18.77;84.30;100805.47;5055996;28;20056;-60
2021/07/09 08:27:48;;;;;;;17.35;14.43;;;;;;;18.78;84.17;100805.34;5061894;28;20052;-59
2021/07/09 08:30:15;;;;;;;19.40;15.00;;;;;;;18.80;84.44;100808.78;5040748;28;20128;-60
2021/07/09 08:32:41;;;;;;;18.83;15.48;;;;;;;18.84;84.89;100807.59;5055809;28;20505;-61
2021/07/09 08:35:08;;;;;;;18.02;14.85;;;;;;;18.89;84.57;100804.53;5044626;28;20420;-59
2021/07/09 08:37:50;;;;;;;18.90;15.43;;;;;;;18.98;84.25;100803.00;5040514;28;20079;-61
2021/07/09 08:40:17;;;;;;;20.45;16.23;;;;;;;18.97;84.59;100802.16;5048510;28;20054;-59
2021/07/09 08:42:43;;;;;;;16.55;14.60;;;;;;;18.97;84.09;100804.84;5055703;28;20432;-60
2021/07/09 08:45:10;;;;;;;16.95;15.05;;;;;;;18.97;83.33;100803.97;5054599;28;20052;-64
2021/07/09 08:47:37;;;;;;;16.75;14.95;;;;;;;18.98;83.42;100803.88;5039757;28;20064;-59
2021/07/09 08:50:07;;;;;;;18.73;16.73;;;;;;;18.98;83.29;100801.19;5055753;28;20063;-60
2021/07/09 08:52:36;;;;;;;18.63;16.63;;;;;;;18.98;83.07;100803.88;5049782;28;20056;-59
2021/07/09 08:55:06;;;;;;;19.33;15.88;;;;;;;18.99;83.76;100810.09;5047503;28;20088;-60
2021/07/09 08:57:32;;;;;;;18.92;16.92;;;;;;;18.99;82.83;100808.28;5042254;28;20056;-58
2021/07/09 08:59:59;;;;;;;19.13;16.48;;;;;;;19.02;82.62;100809.88;5049391;28;20049;-60
2021/07/09 09:02:26;;;;;;;18.52;16.42;;;;;;;19.05;81.91;100806.94;5042918;28;20053;-62
2021/07/09 09:04:55;;;;;;;18.92;15.43;;;;;;;19.07;81.58;100808.53;5047933;28;20061;-62
2021/07/09 09:07:27;;;;;;;16.00;14.30;;;;;;;19.12;81.57;100814.41;5047938;28;20120;-61
2021/07/09 09:09:54;;;;;;;18.05;16.15;;;;;;;19.14;81.42;100815.16;5048497;28;20056;-60
2021/07/09 09:12:45;;;;;;;16.88;14.82;;;;;;;19.10;80.85;100816.34;5045965;28;20048;-60
2021/07/09 09:15:12;;;;;;;19.52;16.00;;;;;;;19.10;80.72;100816.34;5036494;28;20476;-59
2021/07/09 09:17:38;;;;;;;19.58;15.73;;;;;;;19.11;80.37;100812.69;5047206;28;20048;-58
2021/07/09 09:20:06;;;;;;;16.92;15.10;;;;;;;19.17;80.72;100820.31;5048944;28;20413;-59
2021/07/09 09:22:38;;;;;;;21.63;15.27;;;;;;;19.25;80.04;100820.56;5050350;28;20122;-61
2021/07/09 09:25:09;;;;;;;15.85;13.45;;;;;;;19.42;79.52;100819.28;5051009;28;20057;-60
2021/07/09 09:27:36;;;;;;;18.45;14.43;;;;;;;19.61;78.36;100826.78;5054068;28;20049;-61
2021/07/09 09:30:09;;;;;;;14.35;12.55;;;;;;;19.78;78.19;100823.66;5054037;28;20045;-61
2021/07/09 09:32:46;;;;;;;16.13;14.07;;;;;;;19.90;76.85;100822.69;5056377;28;20052;-58
2021/07/09 09:35:42;;;;;;;17.65;14.45;;;;;;;20.02;75.93;100826.22;5044961;28;20048;-60
2021/07/09 09:38:32;;;;;;;14.50;12.68;;;;;;;20.15;76.73;100829.63;5046401;28;20051;-60
2021/07/09 09:41:00;;;;;;;15.57;12.75;;;;;;;20.28;75.81;100827.69;5055071;28;20048;-61
2021/07/09 09:43:31;;;;;;;17.33;15.35;;;;;;;20.42;74.08;100828.44;5043080;28;20160;-61
2021/07/09 09:46:00;;;;;;;;;;;;;;;20.54;74.98;100835.50;5054890;28;20056;-61
2021/07/09 09:48:51;;;;;;;17.13;14.75;;;;;;;20.62;73.83;100833.03;5044669;28;19932;-61
2021/07/09 09:51:37;;;;;;;17.50;13.60;;;;;;;20.71;73.85;100831.44;5037856;28;20042;-59
2021/07/09 09:54:09;;;;;;;16.40;13.40;;;;;;;20.73;74.04;100832.16;5046573;28;20065;-61
2021/07/09 09:56:47;;;;;;;16.55;13.30;;;;;;;20.73;74.24;100832.16;5040795;28;20052;-60
2021/07/09 09:59:22;;;;;;;15.52;12.57;;;;;;;20.69;74.12;100828.00;5045372;28;20083;-58
2021/07/09 10:01:54;;;;;;;15.43;12.23;;;;;;;20.58;73.70;100823.53;5049124;28;20574;-60
2021/07/09 10:04:23;;;;;;;15.77;13.55;;;;;;;20.51;73.73;100827.69;5043949;28;20060;-61
2021/07/09 10:06:50;;;;;;;18.10;12.85;;;;;;;20.46;74.53;100825.34;5040890;28;20469;-61
2021/07/09 10:09:18;;;;;;;16.77;12.27;;;;;;;20.43;74.04;100822.09;5047623;28;20107;-60
2021/07/09 10:11:46;;;;;;;17.40;13.32;;;;;;;20.41;74.55;100824.91;5046436;28;20515;-59
2021/07/09 10:14:14;;;;;;;16.70;13.23;;;;;;;20.42;74.82;100823.06;5053202;28;20502;-61
2021/07/09 10:16:44;;;;;;;16.15;12.80;;;;;;;20.42;73.29;100832.00;5047262;28;20098;-61
2021/07/09 10:19:20;;;;;;;13.70;11.82;;;;;;;20.36;73.25;100829.78;5043372;28;20055;-60
2021/07/09 10:21:47;;;;;;;16.35;13.60;;;;;;;20.36;73.72;100834.28;5040006;28;20570;-60
2021/07/09 10:24:17;;;;;;;17.02;13.50;;;;;;;20.32;73.18;100830.97;5044159;28;20060;-63
2021/07/09 10:26:48;;;;;;;16.13;12.90;;;;;;;20.30;74.43;100830.25;5048640;28;20048;-62
2021/07/09 10:29:18;;;;;;;16.65;13.40;;;;;;;20.30;73.98;100828.41;5042926;28;20567;-60
2021/07/09 10:31:46;;;;;;;18.70;13.68;;;;;;;20.30;73.92;100828.41;5052625;28;20053;-62
2021/07/09 10:34:37;;;;;;;16.05;13.07;;;;;;;20.35;73.28;100828.03;5034693;28;20049;-60
2021/07/09 10:37:08;;;;;;;15.45;12.63;;;;;;;20.41;72.42;100830.28;5041010;28;20053;-61
2021/07/09 10:39:35;;;;;;;15.48;12.30;;;;;;;20.46;72.49;100825.34;5064207;28;20055;-59
2021/07/09 10:42:29;;;;;;;14.27;11.73;;;;;;;20.54;72.30;100830.97;5048030;28;20064;-60
2021/07/09 10:45:08;;;;;;;12.98;11.15;;;;;;;20.64;71.97;100828.38;5045908;28;20055;-61
2021/07/09 10:47:54;;;;;;;14.65;11.13;;;;;;;20.82;72.50;100832.25;5038838;28;20064;-60
2021/07/09 10:50:44;;;;;;;16.25;11.32;;;;;;;20.99;71.20;100833.53;5056523;28;20045;-60
2021/07/09 10:53:11;;;;;;;14.25;10.93;;;;;;;21.20;71.04;100831.78;5059588;28;20044;-62
2021/07/09 10:55:57;;;;;;;11.82;9.82;;;;;;;21.35;69.31;100827.78;5060938;28;20049;-59
2021/07/09 10:58:33;;;;;;;14.10;10.27;;;;;;;21.45;68.21;100829.69;5037298;28;20052;-62
2021/07/09 11:01:06;;;;;;;10.15;8.90;;;;;;;21.48;68.07;100834.81;5062547;28;20056;-60
2021/07/09 11:03:35;;;;;;;10.43;9.23;;;;;;;21.49;67.48;100837.38;5042513;28;20088;-61
2021/07/09 11:06:06;;;;;;;11.90;9.25;;;;;;;21.47;66.93;100828.56;5045942;28;20171;-61
2021/07/09 11:09:07;;;;;;;10.43;8.57;;;;;;;21.37;66.73;100832.19;5047231;28;20584;-62
2021/07/09 11:11:47;;;;;;;10.75;8.82;;;;;;;21.31;67.72;100836.25;5037163;28;20076;-60
2021/07/09 11:14:48;;;;;;;9.55;8.30;;;;;;;21.20;67.43;100837.16;5054916;28;20108;-61
2021/07/09 11:17:23;;;;;;;8.98;7.85;;;;;;;21.20;67.97;100834.47;5045802;28;20518;-60
2021/07/09 11:20:14;;;;;;;11.35;8.85;;;;;;;21.24;68.61;100835.94;5045838;28;20077;-61
2021/07/09 11:22:46;;;;;;;12.05;8.80;;;;;;;21.35;68.50;100830.47;5050945;28;20048;-61
2021/07/09 11:25:21;;;;;;;12.02;7.43;;;;;;;21.42;67.64;100832.63;5046514;28;20050;-60
2021/07/09 11:27:52;;;;;;;10.65;7.15;;;;;;;21.52;66.40;100830.88;5056587;28;20049;-61